createdAt,value
2024-01-08T00:00:38.000Z,20.70
2024-01-08T00:05:43.575Z,20.80
2024-01-08T00:10:48.498Z,20.90
2024-01-08T00:15:53.342Z,20.90
2024-01-08T00:20:58.884Z,20.90
2024-01-08T00:26:03.697Z,21.00
2024-01-08T00:31:08.659Z,21.00
2024-01-08T00:36:16.628Z,20.90
2024-01-08T00:41:21.477Z,21.00
2024-01-08T00:46:26.968Z,21.10
2024-01-08T00:51:32.127Z,21.10
2024-01-08T00:56:37.108Z,21.00
2024-01-08T01:01:42.348Z,21.10
2024-01-08T01:06:47.253Z,21.30
2024-01-08T01:11:52.572Z,21.40
2024-01-08T01:16:57.854Z,21.50
2024-01-08T01:22:03.032Z,21.50
2024-01-08T01:27:08.184Z,21.50
2024-01-08T01:32:13.445Z,21.70
2024-01-08T01:37:18.191Z,22.00
2024-01-08T01:42:22.978Z,22.30
2024-01-08T01:47:28.245Z,22.60
2024-01-08T01:52:33.186Z,22.50
2024-01-08T01:57:38.587Z,22.40
2024-01-08T02:02:45.464Z,22.40
2024-01-08T02:07:51.219Z,22.40
2024-01-08T02:12:56.181Z,22.20
2024-01-08T02:18:01.127Z,22.00
2024-01-08T02:23:07.751Z,22.00
2024-01-08T02:28:12.615Z,22.30
2024-01-08T02:33:17.885Z,22.50
2024-01-08T02:38:22.773Z,22.70
2024-01-08T02:43:27.936Z,22.90
2024-01-08T02:48:32.986Z,23.30
2024-01-08T02:53:38.215Z,23.30
2024-01-08T02:58:43.334Z,23.10
2024-01-08T03:03:48.259Z,23.10
2024-01-08T03:08:53.197Z,23.30
2024-01-08T03:13:57.951Z,23.50
2024-01-08T03:19:03.216Z,24.50
2024-01-08T03:24:08.791Z,25.90
2024-01-08T03:29:13.994Z,26.60
2024-01-08T03:34:19.052Z,26.20
2024-01-08T03:39:23.760Z,26.30
2024-01-08T03:44:28.658Z,26.60
2024-01-08T03:49:33.599Z,25.90
2024-01-08T03:54:38.347Z,25.50
2024-01-08T03:59:45.436Z,25.70
2024-01-08T04:04:50.649Z,26.10
2024-01-08T04:09:55.918Z,26.10
2024-01-08T04:15:01.117Z,26.40
2024-01-08T04:20:08.027Z,26.30
2024-01-08T04:25:13.125Z,26.20
2024-01-08T04:30:18.376Z,26.20
2024-01-08T04:35:23.344Z,26.20
2024-01-08T04:40:28.224Z,26.80
2024-01-08T04:45:33.525Z,27.30
2024-01-08T04:50:38.371Z,27.20
2024-01-08T04:55:43.263Z,26.60
2024-01-08T05:00:48.190Z,26.00
2024-01-08T05:05:53.174Z,25.70
2024-01-08T05:10:58.136Z,25.90
2024-01-08T05:16:04.052Z,25.90
2024-01-08T05:21:10.129Z,25.90
2024-01-08T05:26:14.560Z,25.80
2024-01-08T05:31:19.934Z,25.90
2024-01-08T05:36:25.119Z,25.70
2024-01-08T05:41:30.814Z,25.30
2024-01-08T05:46:36.034Z,25.10
2024-01-08T05:51:40.961Z,25.00
2024-01-08T05:56:45.965Z,25.30
2024-01-08T06:01:50.913Z,25.50
2024-01-08T06:06:57.413Z,25.80
2024-01-08T06:12:02.268Z,26.10
2024-01-08T06:17:07.344Z,26.10
2024-01-08T06:22:12.602Z,26.10
2024-01-08T06:27:17.698Z,26.30
2024-01-08T06:32:22.707Z,26.60
2024-01-08T06:37:27.758Z,26.30
2024-01-08T06:42:46.865Z,26.50
2024-01-08T06:47:57.782Z,27.20
2024-01-08T06:53:03.034Z,27.80
2024-01-08T06:58:08.182Z,30.00
2024-01-08T07:03:13.457Z,32.40
2024-01-08T07:08:19.737Z,32.30
2024-01-08T07:13:25.411Z,30.70
2024-01-08T07:18:32.405Z,29.80
2024-01-08T07:23:38.233Z,30.90
2024-01-08T07:28:47.210Z,32.30
2024-01-08T07:33:52.188Z,32.20
2024-01-08T07:38:59.387Z,30.40
2024-01-08T07:44:05.364Z,29.10
2024-01-08T07:49:12.788Z,28.00
2024-01-08T07:54:17.672Z,27.40
2024-01-08T07:59:22.657Z,27.00
2024-01-08T08:04:27.436Z,27.00
2024-01-08T08:09:32.356Z,26.90
2024-01-08T08:14:38.932Z,26.90
2024-01-08T08:19:45.064Z,26.70
2024-01-08T08:24:51.018Z,26.60
2024-01-08T08:29:58.396Z,26.70
2024-01-08T08:35:05.326Z,26.70
2024-01-08T08:40:11.788Z,26.50
2024-01-08T08:45:19.832Z,26.50
2024-01-08T08:50:25.564Z,26.20
2024-01-08T08:55:30.754Z,26.00
2024-01-08T09:00:35.859Z,26.00
2024-01-08T09:05:46.485Z,26.00
2024-01-08T09:10:52.134Z,25.90
2024-01-08T09:15:57.127Z,25.90
2024-01-08T09:21:02.133Z,25.90
2024-01-08T09:26:07.072Z,25.80
2024-01-08T09:31:12.116Z,25.60
2024-01-08T09:36:17.779Z,25.40
2024-01-08T09:41:24.650Z,25.10
2024-01-08T09:46:31.611Z,25.10
2024-01-08T09:51:37.008Z,24.90
2024-01-08T09:56:42.183Z,24.70
2024-01-08T10:01:47.509Z,24.40
2024-01-08T10:07:08.647Z,24.40
2024-01-08T10:12:14.228Z,24.30
2024-01-08T10:17:23.477Z,24.20
2024-01-08T10:22:30.596Z,24.20
2024-01-08T10:27:36.791Z,24.20
2024-01-08T10:32:43.187Z,24.10
2024-01-08T10:37:51.984Z,24.10
2024-01-08T10:42:57.293Z,24.10
2024-01-08T10:48:18.322Z,24.00
2024-01-08T10:53:37.638Z,23.90
2024-01-08T10:58:52.292Z,23.80
2024-01-08T11:03:58.162Z,23.80
2024-01-08T11:09:05.237Z,23.80
2024-01-08T11:14:10.133Z,23.70
2024-01-08T11:19:20.894Z,23.60
2024-01-08T11:24:26.872Z,23.60
2024-01-08T11:29:31.717Z,23.60
2024-01-08T11:34:48.756Z,23.50
2024-01-08T11:39:53.776Z,23.50
2024-01-08T11:45:01.791Z,23.40
2024-01-08T11:50:08.194Z,23.30
2024-01-08T11:55:14.256Z,23.10
2024-01-08T12:00:25.196Z,23.00
2024-01-08T12:05:30.595Z,23.00
2024-01-08T12:10:35.955Z,23.10
2024-01-08T12:15:42.362Z,23.00
2024-01-08T12:20:50.360Z,23.00
2024-01-08T12:25:55.298Z,22.90
2024-01-08T12:31:03.423Z,22.80
2024-01-08T12:36:08.591Z,22.70
2024-01-08T12:41:13.716Z,22.60
2024-01-08T12:46:18.776Z,22.50
2024-01-08T12:51:23.730Z,22.60
2024-01-08T12:56:28.629Z,22.60
2024-01-08T13:01:33.893Z,22.70
2024-01-08T13:06:38.847Z,22.80
2024-01-08T13:11:44.334Z,22.70
2024-01-08T13:16:51.118Z,22.60
2024-01-08T13:21:55.985Z,22.50
2024-01-08T13:27:01.136Z,22.50
2024-01-08T13:32:06.386Z,22.40
2024-01-08T13:37:11.185Z,22.30
2024-01-08T13:42:19.420Z,22.20
2024-01-08T13:47:24.614Z,22.20
2024-01-08T13:52:30.011Z,22.10
2024-01-08T13:57:34.965Z,22.10
2024-01-08T14:02:40.360Z,22.20
2024-01-08T14:07:45.259Z,22.20
2024-01-08T14:12:50.354Z,22.10
2024-01-08T14:17:55.404Z,22.10
2024-01-08T14:23:00.681Z,22.10
2024-01-08T14:28:05.984Z,22.00
2024-01-08T14:33:10.981Z,22.00
2024-01-08T14:38:18.336Z,22.00
2024-01-08T14:43:23.703Z,21.90
2024-01-08T14:48:29.428Z,21.80
2024-01-08T14:53:34.649Z,21.90
2024-01-08T14:58:39.887Z,21.90
2024-01-08T15:03:46.014Z,21.80
2024-01-08T15:08:51.042Z,21.80
2024-01-08T15:13:56.143Z,21.80
2024-01-08T15:19:01.279Z,21.80
2024-01-08T15:24:08.766Z,21.80
2024-01-08T15:29:14.184Z,21.80
2024-01-08T15:34:19.715Z,21.70
2024-01-08T15:39:24.746Z,21.70
2024-01-08T15:44:29.748Z,21.70
2024-01-08T15:49:35.345Z,21.70
2024-01-08T15:54:40.701Z,21.80
2024-01-08T15:59:46.503Z,21.80
2024-01-08T16:04:51.829Z,21.80
2024-01-08T16:09:56.644Z,21.70
2024-01-08T16:15:01.353Z,21.80
2024-01-08T16:20:06.649Z,21.90
2024-01-08T16:25:11.933Z,21.90
2024-01-08T16:30:18.700Z,21.90
2024-01-08T16:35:23.965Z,21.90
2024-01-08T16:40:29.955Z,21.90
2024-01-08T16:45:34.767Z,21.80
2024-01-08T16:50:39.908Z,21.70
2024-01-08T16:55:44.714Z,21.60
2024-01-08T17:00:50.025Z,21.70
2024-01-08T17:05:56.631Z,21.70
2024-01-08T17:11:04.904Z,21.70
2024-01-08T17:16:09.812Z,21.80
2024-01-08T17:21:14.565Z,21.80
2024-01-08T17:26:20.255Z,21.80
2024-01-08T17:31:25.594Z,21.80
2024-01-08T17:36:30.583Z,21.70
2024-01-08T17:41:35.671Z,21.70
2024-01-08T17:46:41.135Z,21.70
2024-01-08T17:51:47.646Z,21.70
2024-01-08T17:56:54.220Z,21.70
2024-01-08T18:01:59.193Z,21.70
2024-01-08T18:07:04.276Z,21.70
2024-01-08T18:12:09.617Z,21.60
2024-01-08T18:17:14.709Z,21.60
2024-01-08T18:22:19.715Z,21.70
2024-01-08T18:27:24.782Z,21.60
2024-01-08T18:32:29.881Z,21.60
2024-01-08T18:37:35.735Z,21.60
2024-01-08T18:42:40.712Z,21.60
2024-01-08T18:47:45.618Z,21.60
2024-01-08T18:52:50.689Z,21.60
2024-01-08T18:57:55.840Z,21.60
2024-01-08T19:03:01.206Z,21.50
2024-01-08T19:08:06.764Z,21.40
2024-01-08T19:13:11.848Z,21.40
2024-01-08T19:18:17.768Z,21.30
2024-01-08T19:23:26.250Z,21.30
2024-01-08T19:28:31.199Z,21.40
2024-01-08T19:33:36.439Z,21.40
2024-01-08T19:38:42.238Z,21.40
2024-01-08T19:43:47.055Z,21.40
2024-01-08T19:48:51.882Z,21.40
2024-01-08T19:53:57.209Z,21.40
2024-01-08T19:59:02.095Z,21.40
2024-01-08T20:04:07.424Z,21.40
2024-01-08T20:09:12.219Z,21.40
2024-01-08T20:14:17.057Z,21.30
2024-01-08T20:19:22.000Z,21.20
2024-01-08T20:24:27.249Z,21.30
2024-01-08T20:29:32.569Z,21.30
2024-01-08T20:34:37.811Z,21.30
2024-01-08T20:39:42.957Z,21.20
2024-01-08T20:44:48.452Z,21.10
2024-01-08T20:49:53.844Z,21.10
2024-01-08T20:54:58.922Z,21.00
2024-01-08T21:00:03.736Z,21.00
2024-01-08T21:05:08.855Z,21.00
2024-01-08T21:10:14.618Z,20.90
2024-01-08T21:15:19.735Z,20.90
2024-01-08T21:20:24.601Z,20.80
2024-01-08T21:25:30.075Z,20.70
2024-01-08T21:30:35.008Z,20.70
2024-01-08T21:35:42.756Z,20.90
2024-01-08T21:40:47.755Z,20.90
2024-01-08T21:45:52.799Z,20.80
2024-01-08T21:50:58.073Z,20.90
2024-01-08T21:56:03.397Z,20.90
2024-01-08T22:01:09.415Z,21.00
2024-01-08T22:06:15.828Z,21.00
2024-01-08T22:11:21.553Z,21.00
2024-01-08T22:16:26.873Z,21.00
2024-01-08T22:21:33.732Z,21.00
2024-01-08T22:26:40.461Z,21.00
2024-01-08T22:31:45.484Z,21.00
2024-01-08T22:36:50.572Z,21.00
2024-01-08T22:41:55.351Z,21.00
2024-01-08T22:47:01.301Z,21.00
2024-01-08T22:52:06.479Z,21.10
2024-01-08T22:57:11.244Z,21.10
2024-01-08T23:02:16.338Z,21.20
2024-01-08T23:07:21.909Z,21.10
2024-01-08T23:12:26.875Z,21.10
2024-01-08T23:17:31.792Z,21.00
2024-01-08T23:22:37.243Z,21.00
2024-01-08T23:27:42.432Z,21.10
2024-01-08T23:32:48.237Z,21.20
2024-01-08T23:37:55.456Z,21.20
2024-01-08T23:43:00.781Z,21.20
2024-01-08T23:48:07.128Z,21.20
2024-01-08T23:53:13.061Z,21.30
2024-01-08T23:58:20.522Z,21.30
